Time;durP1;ratioP1;P1;durP2;ratioP2;P2;SDS_P1;SDS_P2;PMS_P1;PMS_P2;Temp;Humidity;BMP_temperature;BMP_pressure;BME280_temperature;BME280_humidity;BME280_pressure;Samples;Min_cycle;Max_cycle;Signal;HPM_P1;HPM_P2
2022/05/19 03:55:46;;;;;;;5.90;1.77;;;;;;;9.23;80.94;101705.63;5760171;27;20007;-83
2022/05/19 03:58:50;;;;;;;2.30;2.10;;;;;;;9.28;80.27;101706.06;5343253;33;33431;-83
2022/05/19 04:01:53;;;;;;;2.10;1.90;;;;;;;9.38;79.06;101708.78;5330105;33;32269;-83
2022/05/19 04:04:56;;;;;;;3.15;1.87;;;;;;;9.50;79.96;101710.34;5329070;33;31569;-83
2022/05/19 04:07:59;;;;;;;2.17;1.98;;;;;;;9.59;77.78;101710.53;5342426;33;33673;-83
2022/05/19 04:11:04;;;;;;;2.30;1.55;;;;;;;9.71;76.80;101721.03;5329532;33;31926;-83
2022/05/19 04:14:09;;;;;;;2.70;1.70;;;;;;;9.78;74.14;101718.63;5335732;33;31855;-83
2022/05/19 04:17:12;;;;;;;1.60;1.50;;;;;;;9.81;74.35;101721.03;5340933;33;33491;-83
2022/05/19 04:20:15;;;;;;;2.97;1.60;;;;;;;9.94;71.10;101715.37;5339760;33;33689;-83
2022/05/19 04:23:18;;;;;;;2.53;1.70;;;;;;;10.05;70.08;101719.78;5330312;33;31841;-83
2022/05/19 04:26:21;;;;;;;2.80;1.67;;;;;;;10.19;67.84;101724.75;5345162;33;33696;-83
2022/05/19 04:29:24;;;;;;;1.70;1.60;;;;;;;10.36;67.18;101729.44;5339176;33;31779;-83
2022/05/19 04:32:26;;;;;;;2.70;1.62;;;;;;;10.49;66.38;101730.97;5351493;33;34387;-82
2022/05/19 04:35:31;;;;;;;1.60;1.50;;;;;;;10.53;66.09;101727.00;5343618;33;34065;-83
2022/05/19 04:38:36;;;;;;;1.70;1.60;;;;;;;10.63;68.06;101733.22;5342236;33;33613;-83
2022/05/19 04:41:40;;;;;;;2.53;1.87;;;;;;;10.62;66.95;101726.16;5341932;33;32906;-83
2022/05/19 04:44:42;;;;;;;1.90;1.70;;;;;;;10.71;66.68;101732.50;5330359;33;33102;-83
2022/05/19 04:47:45;;;;;;;2.60;1.80;;;;;;;10.78;66.80;101730.91;5341990;33;33888;-83
2022/05/19 04:50:55;;;;;;;2.10;1.87;;;;;;;10.94;65.26;101730.28;5338962;33;33636;-83
2022/05/19 04:53:57;;;;;;;3.05;1.75;;;;;;;11.06;65.72;101732.66;5329339;33;32974;-86
2022/05/19 04:57:00;;;;;;;2.50;2.08;;;;;;;11.12;64.35;101731.22;5352609;33;33496;-87
2022/05/19 05:00:06;;;;;;;2.97;1.70;;;;;;;11.18;63.19;101729.78;5342453;33;33281;-84
2022/05/19 05:03:09;;;;;;;1.98;1.70;;;;;;;11.26;62.10;101736.16;5344116;33;33640;-83
2022/05/19 05:06:12;;;;;;;4.20;1.95;;;;;;;11.35;61.96;101729.00;5337211;33;33054;-84
2022/05/19 05:09:15;;;;;;;1.70;1.60;;;;;;;11.54;62.70;101731.56;5333651;33;35235;-83
2022/05/19 05:12:18;;;;;;;3.05;1.70;;;;;;;11.62;60.94;101738.94;5321891;33;32013;-84
2022/05/19 05:15:20;;;;;;;3.05;2.15;;;;;;;11.77;60.29;101734.69;5324954;33;33052;-84
2022/05/19 05:18:24;;;;;;;2.58;1.95;;;;;;;11.99;59.53;101729.88;5324659;33;33217;-83
2022/05/19 05:21:26;;;;;;;2.85;2.10;;;;;;;12.12;58.26;101735.75;5310723;33;32856;-82
2022/05/19 05:24:29;;;;;;;2.90;2.00;;;;;;;12.26;56.56;101734.38;5311083;33;33098;-82
2022/05/19 05:27:32;;;;;;;2.75;1.90;;;;;;;12.32;56.08;101736.44;5310624;33;32134;-83
2022/05/19 05:30:35;;;;;;;1.80;1.70;;;;;;;12.47;57.23;101740.28;5324719;33;34143;-82
2022/05/19 05:33:38;;;;;;;2.15;1.85;;;;;;;12.67;56.01;101749.03;5330103;33;33115;-83
2022/05/19 05:36:41;;;;;;;4.10;2.30;;;;;;;12.80;54.15;101748.63;5345964;33;33915;-83
2022/05/19 05:39:43;;;;;;;2.83;2.10;;;;;;;13.03;54.09;101750.78;5340154;33;33763;-83
2022/05/19 05:42:46;;;;;;;2.37;1.87;;;;;;;13.12;53.07;101749.81;5315581;33;32218;-82
2022/05/19 05:45:49;;;;;;;2.37;1.77;;;;;;;13.29;51.86;101748.09;5329995;33;34397;-83
2022/05/19 05:48:53;;;;;;;1.90;1.80;;;;;;;13.39;50.66;101752.34;5318240;33;32046;-83
2022/05/19 05:51:55;;;;;;;1.85;1.75;;;;;;;13.54;51.07;101749.88;5326190;33;32104;-83
2022/05/19 05:54:59;;;;;;;2.35;2.03;;;;;;;13.71;49.38;101747.22;5324672;33;31870;-83
2022/05/19 05:58:07;;;;;;;2.03;1.77;;;;;;;13.94;48.13;101753.69;5323222;33;31667;-83
2022/05/19 06:01:12;;;;;;;2.70;1.77;;;;;;;13.95;49.90;101760.84;5322283;33;31592;-83
2022/05/19 06:04:15;;;;;;;3.72;2.30;;;;;;;14.11;48.62;101754.59;5324020;33;32353;-83
2022/05/19 06:07:18;;;;;;;2.70;2.17;;;;;;;14.21;46.99;101749.84;5319986;33;32558;-83
2022/05/19 06:10:21;;;;;;;3.03;2.08;;;;;;;14.32;47.55;101754.09;5312413;33;33929;-83
2022/05/19 06:13:24;;;;;;;4.30;2.33;;;;;;;14.51;47.13;101745.66;5315065;33;32274;-83
2022/05/19 06:16:27;;;;;;;2.20;2.00;;;;;;;14.65;48.21;101746.81;5327846;33;32583;-83
2022/05/19 06:19:29;;;;;;;3.10;2.45;;;;;;;14.82;49.10;101742.22;5328255;33;33369;-83
2022/05/19 06:22:32;;;;;;;2.60;2.08;;;;;;;15.07;46.04;101734.87;5326958;33;32761;-83
2022/05/19 06:25:35;;;;;;;4.37;2.45;;;;;;;15.03;45.43;101741.66;5326587;33;33643;-83
2022/05/19 06:28:38;;;;;;;2.62;2.30;;;;;;;15.16;46.13;101736.56;5336192;33;33614;-83
2022/05/19 06:31:41;;;;;;;3.08;2.60;;;;;;;15.47;46.75;101746.59;5327249;33;33356;-82
2022/05/19 06:34:44;;;;;;;3.47;2.40;;;;;;;15.59;44.13;101749.75;5332031;33;34020;-82
2022/05/19 06:37:47;;;;;;;3.17;2.50;;;;;;;15.80;43.56;101751.91;5333507;33;32188;-83
2022/05/19 06:40:49;;;;;;;2.78;2.58;;;;;;;15.95;43.99;101743.84;5331886;33;33963;-83
2022/05/19 06:43:56;;;;;;;3.80;2.55;;;;;;;16.12;42.32;101737.28;5321380;33;33702;-83
2022/05/19 06:47:00;;;;;;;2.85;2.22;;;;;;;16.30;41.60;101742.41;5325439;33;33001;-83
2022/05/19 06:50:05;;;;;;;4.80;2.83;;;;;;;16.44;42.84;101744.31;5324263;33;31756;-84
2022/05/19 06:53:08;;;;;;;4.45;2.75;;;;;;;16.75;42.27;101746.91;5324091;33;32954;-83
2022/05/19 06:56:12;;;;;;;6.65;2.85;;;;;;;17.07;41.44;101744.06;5320065;33;31730;-84
2022/05/19 06:59:16;;;;;;;3.22;2.53;;;;;;;17.28;40.15;101746.03;5331846;33;32813;-83
2022/05/19 07:02:21;;;;;;;3.15;2.50;;;;;;;17.47;39.23;101741.91;5332748;33;34146;-83
2022/05/19 07:05:29;;;;;;;3.03;2.67;;;;;;;17.68;39.86;101731.87;5329915;33;33673;-88
2022/05/19 07:08:32;;;;;;;4.93;2.83;;;;;;;17.86;39.36;101736.09;5332174;33;32638;-88
2022/05/19 07:11:35;;;;;;;3.92;3.12;;;;;;;18.17;39.16;101738.53;5332209;33;32118;-83
2022/05/19 07:14:38;;;;;;;4.10;2.70;;;;;;;18.17;37.84;101741.25;5330350;33;32923;-84
2022/05/19 07:17:43;;;;;;;3.30;1.90;;;;;;;18.29;36.94;101738.84;5348665;27;33374;-84
2022/05/19 07:20:49;;;;;;;3.22;1.90;;;;;;;18.36;34.60;101729.69;5338916;33;33266;-84
2022/05/19 07:23:54;;;;;;;2.20;1.70;;;;;;;18.64;34.94;101736.22;5338094;33;33023;-83
2022/05/19 07:26:58;;;;;;;1.60;1.45;;;;;;;18.78;34.96;101727.97;5334423;33;31891;-83
2022/05/19 07:30:01;;;;;;;1.48;1.30;;;;;;;19.03;32.59;101722.03;5350041;33;33321;-83
2022/05/19 07:33:05;;;;;;;1.80;1.10;;;;;;;19.31;31.62;101721.97;5341041;33;32779;-83
2022/05/19 07:36:08;;;;;;;1.48;1.25;;;;;;;19.21;30.72;101724.22;5342331;33;34886;-83
2022/05/19 07:39:11;;;;;;;2.92;1.65;;;;;;;19.37;29.54;101714.87;5342507;33;33573;-83
2022/05/19 07:42:14;;;;;;;1.27;1.17;;;;;;;19.40;31.99;101711.72;5343093;33;34021;-82
2022/05/19 07:45:17;;;;;;;0.70;0.70;;;;;;;19.66;28.71;101713.75;5343155;33;33473;-83
2022/05/19 07:48:20;;;;;;;0.88;0.80;;;;;;;19.69;28.35;101705.13;5336077;33;31942;-83
2022/05/19 07:51:25;;;;;;;1.23;0.85;;;;;;;19.75;27.83;101712.50;5339116;33;31831;-83
2022/05/19 07:54:30;;;;;;;0.85;0.75;;;;;;;19.83;27.15;101708.72;5341752;33;33330;-83
2022/05/19 07:57:33;;;;;;;1.70;0.80;;;;;;;19.84;27.87;101705.81;5336260;33;32392;-83
2022/05/19 08:00:36;;;;;;;3.12;1.02;;;;;;;19.98;27.61;101711.28;5325978;33;32118;-83
2022/05/19 08:03:40;;;;;;;2.50;1.20;;;;;;;20.26;28.97;101705.66;5342314;33;34489;-83
2022/05/19 08:06:43;;;;;;;1.10;1.10;;;;;;;20.37;26.25;101710.50;5342818;33;31980;-83
2022/05/19 08:16:30;;;;;;;1.83;1.02;;;;;;;20.61;25.99;101704.41;5341774;33;31894;-85
2022/05/19 08:19:33;;;;;;;1.85;1.70;;;;;;;20.61;25.96;101707.13;5336778;33;33436;-84
2022/05/19 08:22:36;;;;;;;1.50;0.98;;;;;;;20.64;25.89;101699.56;5342207;33;33869;-82
2022/05/19 08:25:39;;;;;;;1.45;1.33;;;;;;;20.95;25.79;101713.41;5337000;33;33773;-82
2022/05/19 08:28:44;;;;;;;2.00;1.27;;;;;;;21.06;26.00;101703.72;5341811;33;34822;-83
2022/05/19 08:31:46;;;;;;;4.10;1.70;;;;;;;21.01;25.11;101700.78;5338683;33;31584;-83
2022/05/19 08:34:49;;;;;;;0.52;0.52;;;;;;;21.00;25.89;101697.19;5336135;33;33843;-82
2022/05/19 08:37:55;;;;;;;0.77;0.65;;;;;;;21.32;25.68;101702.75;5342036;33;33201;-83
2022/05/19 08:41:13;;;;;;;1.33;0.82;;;;;;;21.59;26.79;101695.31;5336665;33;32908;-83
2022/05/19 08:44:29;;;;;;;2.12;0.85;;;;;;;21.79;24.90;101699.81;5336333;33;34800;-84
2022/05/19 08:47:37;;;;;;;0.73;0.73;;;;;;;21.75;23.32;101704.91;5351458;33;33448;-84
2022/05/19 08:50:53;;;;;;;1.52;1.35;;;;;;;21.39;23.28;101697.31;5349252;33;32627;-84
2022/05/19 08:54:03;;;;;;;4.32;1.20;;;;;;;21.56;23.91;101703.09;5332639;33;33339;-84
2022/05/19 08:57:19;;;;;;;1.10;0.90;;;;;;;21.67;24.52;101695.03;5340940;33;32340;-84
2022/05/19 09:00:31;;;;;;;0.80;0.70;;;;;;;21.93;23.66;101695.94;5336740;33;34455;-84
2022/05/19 09:04:02;;;;;;;0.90;0.90;;;;;;;21.71;23.34;101690.81;5340457;33;32331;-83
2022/05/19 09:11:15;;;;;;;2.10;1.30;;;;;;;22.04;22.75;101687.00;5339645;33;31608;-83
2022/05/19 09:14:26;;;;;;;2.78;1.05;;;;;;;22.19;23.00;101686.72;5344665;33;33455;-85
2022/05/19 09:17:31;;;;;;;1.35;1.02;;;;;;;22.27;24.28;101689.19;5339019;33;33165;-84
2022/05/19 09:20:46;;;;;;;0.60;0.60;;;;;;;22.25;23.58;101690.47;5342937;33;33508;-84
2022/05/19 09:23:49;;;;;;;7.60;1.67;;;;;;;22.10;24.18;101688.84;5333492;33;33369;-85
2022/05/19 09:26:54;;;;;;;0.98;0.90;;;;;;;22.38;24.34;101680.22;5341303;33;33769;-84
2022/05/19 09:29:58;;;;;;;1.25;0.82;;;;;;;22.39;22.24;101681.06;5335050;33;34589;-85
2022/05/19 09:33:13;;;;;;;0.70;0.70;;;;;;;22.39;22.58;101676.41;5341576;33;32217;-84
2022/05/19 09:36:17;;;;;;;2.45;0.80;;;;;;;22.52;22.02;101683.72;5329117;33;31978;-84
2022/05/19 09:39:22;;;;;;;0.65;0.62;;;;;;;22.66;22.56;101669.84;5341616;33;34156;-83
2022/05/19 09:42:35;;;;;;;0.70;0.70;;;;;;;22.80;22.65;101674.13;5341920;33;33724;-83
2022/05/19 09:45:44;;;;;;;1.45;0.73;;;;;;;22.84;22.43;101670.72;5339472;33;32715;-83
2022/05/19 09:48:51;;;;;;;1.55;0.75;;;;;;;22.94;22.47;101655.59;5333107;33;33012;-88
2022/05/19 09:51:59;;;;;;;2.67;0.98;;;;;;;23.02;21.99;101658.06;5341887;33;33208;-88
2022/05/19 09:55:06;;;;;;;4.05;1.40;;;;;;;22.84;22.05;101653.38;5337454;33;33402;-84
2022/05/19 09:58:15;;;;;;;0.98;0.68;;;;;;;22.80;22.78;101658.47;5339037;33;33785;-84
2022/05/19 10:01:43;;;;;;;0.85;0.70;;;;;;;23.12;23.39;101649.28;5335458;33;34738;-83
2022/05/19 10:04:53;;;;;;;0.62;0.62;;;;;;;23.50;23.97;101652.56;5334294;33;34005;-84
2022/05/19 10:08:04;;;;;;;1.83;1.00;;;;;;;23.72;21.98;101638.34;5332207;33;32276;-83
2022/05/19 10:11:13;;;;;;;0.68;0.50;;;;;;;23.64;21.63;101635.91;5335608;33;34461;-84
2022/05/19 10:14:30;;;;;;;0.60;0.60;;;;;;;23.84;22.28;101630.97;5340693;33;32674;-84
2022/05/19 10:17:50;;;;;;;0.95;0.65;;;;;;;24.24;22.14;101623.97;5343946;33;33540;-83
2022/05/19 10:21:16;;;;;;;0.80;0.80;;;;;;;24.15;21.24;101632.56;5340158;33;32428;-82
2022/05/19 10:24:37;;;;;;;0.73;0.70;;;;;;;24.28;22.57;101630.66;5308836;33;33808;-82
2022/05/19 10:31:19;;;;;;;0.95;0.65;;;;;;;24.88;20.39;101619.38;5351984;33;33279;-83
2022/05/19 10:34:30;;;;;;;1.37;0.77;;;;;;;25.24;20.12;101611.88;5342408;33;34760;-82
2022/05/19 10:37:42;;;;;;;0.50;0.50;;;;;;;25.23;20.90;101619.31;5338502;33;34800;-83
2022/05/19 10:41:04;;;;;;;0.60;0.60;;;;;;;25.36;19.74;101609.06;5336053;33;32518;-83
2022/05/19 10:44:19;;;;;;;1.35;0.50;;;;;;;25.60;19.97;101599.63;5339375;33;33329;-83
2022/05/19 10:52:24;;;;;;;0.77;0.68;;;;;;;26.11;20.75;101600.50;5357230;27;34335;-89
2022/05/19 10:55:49;;;;;;;0.57;0.57;;;;;;;26.39;19.43;101594.03;5325300;33;32453;-84
2022/05/19 10:59:30;;;;;;;0.60;0.55;;;;;;;26.82;18.48;101572.25;5321437;33;33603;-84
2022/05/19 11:03:03;;;;;;;0.75;0.55;;;;;;;27.44;19.06;101573.81;5321903;33;32437;-84
2022/05/19 11:06:15;;;;;;;1.65;1.02;;;;;;;27.73;17.48;101569.66;5315543;33;33138;-83
2022/05/19 11:09:26;;;;;;;0.52;0.52;;;;;;;28.03;16.75;101569.09;5339583;33;33109;-85
2022/05/19 11:12:49;;;;;;;0.32;0.32;;;;;;;28.41;15.95;101563.50;5342178;33;33230;-88
2022/05/19 11:16:14;;;;;;;0.30;0.30;;;;;;;28.60;18.77;101561.97;5332120;33;32616;-88
2022/05/19 11:19:26;;;;;;;0.40;0.40;;;;;;;29.14;16.57;101547.78;5323448;33;32171;-87
2022/05/19 11:22:34;;;;;;;4.28;0.90;;;;;;;29.53;15.00;101550.03;5344055;33;34955;-87
2022/05/19 11:29:49;;;;;;;0.40;0.40;;;;;;;30.99;13.65;101542.00;5327875;33;32532;-84
2022/05/19 11:32:57;;;;;;;0.65;0.60;;;;;;;31.57;13.39;101533.81;5358956;33;34477;-87
2022/05/19 11:36:07;;;;;;;0.57;0.57;;;;;;;32.73;12.95;101525.37;5344791;33;34954;-86
2022/05/19 11:39:40;;;;;;;0.45;0.45;;;;;;;32.82;12.37;101533.06;5326550;33;33105;-85
2022/05/19 11:43:04;;;;;;;0.65;0.55;;;;;;;33.05;11.92;101523.00;5337629;33;33905;-90
2022/05/19 11:46:30;;;;;;;0.45;0.45;;;;;;;33.27;12.42;101523.22;5325611;33;33123;-87
2022/05/19 11:56:34;;;;;;;0.28;0.28;;;;;;;34.58;12.95;101506.34;5343448;33;32902;-87
2022/05/19 11:59:38;;;;;;;3.20;1.00;;;;;;;35.79;10.86;101495.31;5350446;33;32278;-87
2022/05/19 12:02:56;;;;;;;0.60;0.57;;;;;;;35.29;11.57;101497.44;5361184;33;34887;-87
2022/05/19 12:06:03;;;;;;;0.60;0.55;;;;;;;35.44;12.85;101486.69;5364701;33;33847;-87
2022/05/19 12:09:14;;;;;;;0.50;0.50;;;;;;;36.44;11.13;101487.34;5345902;33;32308;-87
2022/05/19 12:12:25;;;;;;;0.55;0.50;;;;;;;36.42;10.88;101481.22;5355982;33;34237;-86
2022/05/19 12:15:49;;;;;;;0.37;0.30;;;;;;;36.90;10.62;101480.34;5344813;33;32350;-92
2022/05/19 12:19:09;;;;;;;0.75;0.75;;;;;;;37.15;9.60;101473.09;5359064;33;33021;-87
2022/05/19 12:22:17;;;;;;;0.40;0.40;;;;;;;36.90;10.04;101471.94;5351090;33;33389;-87
2022/05/19 12:25:27;;;;;;;1.25;0.60;;;;;;;37.59;10.30;101466.28;5359412;33;32302;-86
2022/05/19 12:28:58;;;;;;;0.40;0.40;;;;;;;37.25;10.11;101464.34;5345651;33;32124;-89
2022/05/19 12:32:14;;;;;;;0.55;0.55;;;;;;;37.58;9.11;101461.81;5339404;33;32243;-88
2022/05/19 12:35:17;;;;;;;;;;;;;;;37.75;9.88;101460.09;5340266;33;31811;-87
2022/05/19 12:38:31;;;;;;;0.50;0.50;;;;;;;38.01;9.62;101463.66;5355510;33;33174;-88
2022/05/19 12:41:39;;;;;;;0.50;0.50;;;;;;;38.48;9.35;101457.13;5342427;33;31947;-88
2022/05/19 12:44:51;;;;;;;0.40;0.40;;;;;;;38.14;8.85;101461.78;5340733;33;34153;-88
2022/05/19 12:47:57;;;;;;;0.50;0.40;;;;;;;38.13;9.26;101451.69;5345732;33;32268;-87
2022/05/19 12:51:08;;;;;;;2.00;0.40;;;;;;;38.74;8.70;101445.69;5400826;28;32410;-88
2022/05/19 12:54:11;;;;;;;1.65;0.70;;;;;;;38.82;8.99;101450.44;5362920;33;31963;-86
2022/05/19 12:57:14;;;;;;;0.60;0.60;;;;;;;39.57;7.90;101441.91;5372704;33;33969;-89
2022/05/19 13:00:35;;;;;;;4.03;0.75;;;;;;;38.19;9.75;101444.69;5378364;33;33183;-90
2022/05/19 13:03:42;;;;;;;0.65;0.40;;;;;;;39.88;8.20;101441.41;5383780;33;35012;-87
2022/05/19 13:06:51;;;;;;;;;;;;;;;39.35;8.56;101431.91;5363796;33;146651;-86
2022/05/19 13:10:03;;;;;;;0.57;0.57;;;;;;;38.50;9.86;101424.69;5387714;33;33425;-86
2022/05/19 13:13:31;;;;;;;0.47;0.47;;;;;;;38.56;9.40;101426.13;5381516;33;33035;-86
2022/05/19 13:16:41;;;;;;;0.55;0.52;;;;;;;39.54;8.29;101422.06;5383724;33;33261;-85
2022/05/19 13:19:43;;;;;;;0.50;0.50;;;;;;;39.10;8.63;101416.06;5382395;33;31767;-86
2022/05/19 13:22:55;;;;;;;1.50;0.50;;;;;;;38.84;8.73;101424.72;5364752;33;32043;-85
2022/05/19 13:26:03;;;;;;;1.48;0.47;;;;;;;40.05;7.49;101425.44;5377094;33;33910;-85
2022/05/19 13:32:36;;;;;;;0.70;0.50;;;;;;;39.48;8.85;101412.19;5361888;33;32710;-85
2022/05/19 13:35:39;;;;;;;0.50;0.50;;;;;;;39.20;8.32;101410.00;5365415;33;32329;-84
2022/05/19 13:38:42;;;;;;;2.12;0.60;;;;;;;39.52;8.44;101407.50;5367021;33;32394;-85
2022/05/19 13:41:56;;;;;;;0.28;0.28;;;;;;;39.56;7.96;101400.00;5372769;33;33079;-85
2022/05/19 13:44:59;;;;;;;1.15;0.45;;;;;;;39.12;8.12;101396.81;5368363;33;32478;-84
2022/05/19 13:48:16;;;;;;;0.30;0.30;;;;;;;39.20;8.11;101402.38;5364393;33;31978;-83
2022/05/19 13:51:44;;;;;;;0.80;0.80;;;;;;;38.70;8.43;101403.34;5378261;33;32952;-85
2022/05/19 13:54:49;;;;;;;0.50;0.47;;;;;;;38.53;8.85;101403.47;5364516;33;33093;-85
2022/05/19 13:57:53;;;;;;;0.30;0.30;;;;;;;38.89;8.42;101393.56;5357298;33;33612;-85
2022/05/19 14:00:56;;;;;;;0.40;0.40;;;;;;;40.06;8.02;101385.56;5362348;33;32101;-85
2022/05/19 14:04:03;;;;;;;0.85;0.57;;;;;;;39.08;8.84;101381.78;5375819;33;33579;-84
2022/05/19 14:07:07;;;;;;;;;;;;;;;37.45;9.56;101384.16;5364637;33;33700;-85
2022/05/19 14:10:14;;;;;;;0.70;0.55;;;;;;;35.07;10.86;101375.91;5363983;33;33893;-85
2022/05/19 14:13:22;;;;;;;0.40;0.40;;;;;;;33.31;11.76;101381.91;5346162;33;32445;-84
2022/05/19 14:16:30;;;;;;;1.42;0.40;;;;;;;31.72;13.05;101380.53;5354507;33;31985;-84
2022/05/19 14:19:39;;;;;;;0.65;0.65;;;;;;;30.18;14.08;101382.78;5382165;33;33313;-84
2022/05/19 14:22:42;;;;;;;1.25;0.80;;;;;;;29.27;14.83;101381.91;5385307;33;33804;-84
2022/05/19 14:25:52;;;;;;;0.90;0.70;;;;;;;28.83;16.02;101374.94;5364460;33;32673;-84
2022/05/19 14:28:59;;;;;;;1.80;0.70;;;;;;;28.34;16.89;101369.84;5364231;33;32263;-84
2022/05/19 14:32:32;;;;;;;1.10;0.98;;;;;;;27.93;17.20;101371.63;5377870;33;33529;-84
2022/05/19 14:35:41;;;;;;;0.77;0.77;;;;;;;27.51;16.68;101358.66;5377548;33;33563;-84
2022/05/19 14:39:06;;;;;;;0.93;0.93;;;;;;;26.88;18.24;101364.81;5378123;33;33562;-88
2022/05/19 14:45:50;;;;;;;1.23;1.08;;;;;;;26.22;18.52;101353.03;5368179;33;32482;-84
2022/05/19 14:49:02;;;;;;;1.17;0.90;;;;;;;26.08;18.26;101344.31;5384711;33;33550;-84
2022/05/19 14:52:07;;;;;;;1.80;0.80;;;;;;;25.83;18.32;101349.50;5363425;33;32031;-84
2022/05/19 14:55:24;;;;;;;1.10;1.00;;;;;;;25.78;18.84;101339.22;5381464;33;33078;-84
2022/05/19 14:58:46;;;;;;;2.60;1.08;;;;;;;25.65;19.19;101340.41;5381821;33;33262;-84
2022/05/19 15:01:49;;;;;;;0.90;0.80;;;;;;;25.52;19.97;101333.38;5380534;33;34309;-84
2022/05/19 15:04:53;;;;;;;0.82;0.82;;;;;;;25.58;19.26;101334.28;5367137;33;31786;-84
2022/05/19 15:08:00;;;;;;;1.20;1.10;;;;;;;25.49;19.68;101335.81;5365165;33;33545;-84
2022/05/19 15:11:04;;;;;;;1.30;1.20;;;;;;;25.27;20.90;101332.97;5369709;33;33848;-83
2022/05/19 15:14:07;;;;;;;0.70;0.70;;;;;;;25.12;20.73;101337.12;5372238;33;33294;-84
2022/05/19 15:17:10;;;;;;;0.98;0.95;;;;;;;24.88;21.48;101347.50;5364717;33;32258;-84
2022/05/19 15:20:20;;;;;;;1.58;0.85;;;;;;;24.82;20.99;101344.91;5375794;33;34397;-84
2022/05/19 15:23:23;;;;;;;1.00;1.00;;;;;;;24.74;21.43;101340.62;5364206;33;32090;-84
2022/05/19 15:26:26;;;;;;;0.80;0.80;;;;;;;24.57;20.58;101329.63;5351575;33;32062;-84
2022/05/19 15:29:29;;;;;;;0.90;0.90;;;;;;;24.53;20.11;101331.19;5361490;33;33237;-83
2022/05/19 15:32:32;;;;;;;1.48;1.10;;;;;;;24.44;21.01;101330.75;5362805;33;33359;-83
2022/05/19 15:35:35;;;;;;;3.10;0.90;;;;;;;24.37;20.89;101318.22;5370825;33;34166;-84
2022/05/19 15:38:38;;;;;;;1.00;0.90;;;;;;;24.38;21.43;101317.94;5378268;33;32498;-84
2022/05/19 15:41:41;;;;;;;1.20;1.10;;;;;;;24.32;22.09;101318.94;5380630;33;34563;-84
2022/05/19 15:44:45;;;;;;;0.80;0.80;;;;;;;24.24;21.09;101293.72;5379221;33;31834;-84
2022/05/19 15:47:50;;;;;;;1.00;0.90;;;;;;;24.14;20.98;101308.97;5382362;33;34678;-84
2022/05/19 15:50:53;;;;;;;1.00;0.80;;;;;;;24.07;21.61;101299.19;5377787;33;33085;-84
2022/05/19 15:53:56;;;;;;;1.90;1.00;;;;;;;23.97;21.06;101297.06;5365292;33;31931;-84
2022/05/19 15:56:59;;;;;;;1.60;1.08;;;;;;;23.89;21.32;101295.53;5377796;33;32092;-84
